Time;durP1;ratioP1;P1;durP2;ratioP2;P2;SDS_P1;SDS_P2;PMS_P1;PMS_P2;Temp;Humidity;BMP_temperature;BMP_pressure;BME280_temperature;BME280_humidity;BME280_pressure;Samples;Min_cycle;Max_cycle;Signal;HPM_P1;HPM_P2
2021/07/02 00:00:50;;;;;;;16.58;11.85;;;;;;;8.87;61.63;95613.03;5054244;28;20108;-66
2021/07/02 00:03:15;;;;;;;15.98;10.80;;;;;;;8.71;62.46;95609.38;5053234;28;20107;-66
2021/07/02 00:05:41;;;;;;;28.98;19.73;;;;;;;8.62;64.01;95613.84;5049621;28;20124;-66
2021/07/02 00:08:06;;;;;;;20.60;14.25;;;;;;;8.60;62.59;95609.72;5053148;28;20131;-66
2021/07/02 00:10:31;;;;;;;21.60;15.48;;;;;;;8.81;63.72;95601.25;5056114;28;20599;-66
2021/07/02 00:12:57;;;;;;;11.82;7.07;;;;;;;8.53;62.68;95605.06;5053420;28;20865;-66
2021/07/02 00:15:22;;;;;;;21.90;14.43;;;;;;;8.57;64.43;95610.88;5053327;28;20132;-66
2021/07/02 00:17:48;;;;;;;19.67;13.10;;;;;;;8.46;63.21;95609.38;5059314;28;20105;-66
2021/07/02 00:20:14;;;;;;;15.65;10.90;;;;;;;8.56;63.83;95615.34;5054590;28;20168;-66
2021/07/02 00:22:39;;;;;;;20.42;13.60;;;;;;;8.75;63.77;95605.41;5060960;28;20565;-66
2021/07/02 00:25:05;;;;;;;22.60;15.57;;;;;;;8.84;62.53;95603.56;5054176;28;20340;-66
2021/07/02 00:27:31;;;;;;;20.95;15.18;;;;;;;8.64;63.07;95605.72;5063319;28;20104;-66
2021/07/02 00:29:56;;;;;;;25.63;16.08;;;;;;;8.41;63.51;95601.91;5060632;28;20109;-66
2021/07/02 00:32:21;;;;;;;24.02;15.88;;;;;;;8.61;63.23;95598.94;5052758;28;20143;-66
2021/07/02 00:34:47;;;;;;;12.18;8.25;;;;;;;8.85;61.83;95601.75;5059537;28;20175;-66
2021/07/02 00:37:12;;;;;;;15.95;9.95;;;;;;;8.73;61.86;95599.41;5062566;28;20077;-66
2021/07/02 00:39:38;;;;;;;27.08;17.73;;;;;;;9.01;62.25;95601.75;5058358;28;20101;-66
2021/07/02 00:42:03;;;;;;;27.05;18.35;;;;;;;9.06;61.70;95598.59;5056939;28;20143;-66
2021/07/02 00:44:42;;;;;;;21.00;14.70;;;;;;;9.60;60.50;95599.78;5055490;28;20144;-66
2021/07/02 00:47:08;;;;;;;29.27;18.77;;;;;;;9.22;61.37;95600.38;5036213;28;20112;-66
2021/07/02 00:49:34;;;;;;;28.63;20.42;;;;;;;9.43;61.11;95599.00;5072727;28;20362;-66
2021/07/02 00:52:00;;;;;;;31.23;20.90;;;;;;;9.45;60.87;95602.28;5054627;28;20073;-66
2021/07/02 00:54:26;;;;;;;27.45;19.85;;;;;;;9.61;61.47;95597.91;5062315;28;20415;-66
2021/07/02 00:56:52;;;;;;;29.00;19.33;;;;;;;9.53;60.44;95589.00;5059819;28;20538;-66
2021/07/02 00:59:17;;;;;;;18.88;11.73;;;;;;;9.77;58.96;95584.56;5038566;28;20104;-66
2021/07/02 01:01:42;;;;;;;26.30;16.67;;;;;;;9.70;59.55;95583.59;5050392;28;20105;-66
2021/07/02 01:04:08;;;;;;;25.55;16.58;;;;;;;9.64;59.57;95589.59;5056199;28;20154;-66
2021/07/02 01:06:33;;;;;;;29.35;19.40;;;;;;;9.56;59.85;95585.97;5054314;28;20512;-66
2021/07/02 01:08:59;;;;;;;29.98;20.35;;;;;;;9.94;60.27;95584.47;5047958;28;20468;-67
2021/07/02 01:11:24;;;;;;;25.65;18.38;;;;;;;9.79;59.35;95589.72;5055249;28;20073;-66
2021/07/02 01:13:49;;;;;;;26.85;19.08;;;;;;;10.16;58.76;95582.06;5060429;28;20100;-66
2021/07/02 01:16:15;;;;;;;28.65;17.80;;;;;;;10.19;58.08;95581.69;5053896;28;20093;-66
2021/07/02 01:18:40;;;;;;;29.67;19.67;;;;;;;10.16;59.03;95582.88;5048759;28;20660;-67
2021/07/02 01:21:06;;;;;;;19.55;12.95;;;;;;;10.22;57.49;95578.69;5054663;28;20084;-66
2021/07/02 01:23:31;;;;;;;25.70;18.60;;;;;;;10.25;58.38;95574.84;5063006;28;20150;-66
2021/07/02 01:25:57;;;;;;;28.83;18.02;;;;;;;10.50;58.17;95570.16;5055985;28;20483;-66
2021/07/02 01:28:22;;;;;;;31.63;20.85;;;;;;;10.50;58.64;95578.16;5030761;28;20611;-66
2021/07/02 01:30:48;;;;;;;27.92;18.23;;;;;;;10.55;58.43;95578.47;5054694;28;20107;-66
2021/07/02 01:33:14;;;;;;;32.90;19.55;;;;;;;10.55;57.66;95577.63;5053381;28;20073;-66
2021/07/02 01:35:39;;;;;;;27.65;18.50;;;;;;;10.09;58.24;95572.13;5053096;28;20537;-66
2021/07/02 01:38:05;;;;;;;19.35;12.55;;;;;;;10.39;56.92;95579.41;5052025;28;20105;-66
2021/07/02 01:40:31;;;;;;;26.60;18.55;;;;;;;10.57;57.91;95581.75;5063644;28;20097;-66
2021/07/02 01:42:58;;;;;;;20.15;13.30;;;;;;;10.52;57.16;95575.31;5053778;28;20175;-66
2021/07/02 01:45:23;;;;;;;22.92;14.63;;;;;;;10.77;55.86;95573.28;5059415;28;20191;-66
2021/07/02 01:47:49;;;;;;;23.95;17.67;;;;;;;10.75;57.12;95564.66;5053644;28;20258;-66
2021/07/02 01:50:14;;;;;;;25.85;18.75;;;;;;;10.44;57.91;95577.03;5061124;28;20176;-66
2021/07/02 01:52:40;;;;;;;27.73;19.92;;;;;;;10.36;58.41;95572.63;5054966;28;20092;-66
2021/07/02 01:55:06;;;;;;;23.15;15.18;;;;;;;10.17;57.96;95576.56;5055181;28;20097;-66
2021/07/02 01:57:31;;;;;;;23.63;16.05;;;;;;;10.27;58.05;95572.84;5048624;28;20115;-66
2021/07/02 01:59:56;;;;;;;19.48;11.45;;;;;;;10.52;56.90;95573.50;5048368;28;20100;-66
2021/07/02 02:02:22;;;;;;;20.45;14.07;;;;;;;10.30;57.29;95573.31;5049054;28;20609;-66
2021/07/02 02:04:48;;;;;;;23.70;17.77;;;;;;;10.58;57.12;95574.59;5050371;28;20094;-66
2021/07/02 02:07:13;;;;;;;21.38;12.50;;;;;;;10.34;56.88;95574.59;5049723;28;20106;-66
2021/07/02 02:09:39;;;;;;;23.58;16.52;;;;;;;10.40;57.59;95575.72;5054469;28;20463;-66
2021/07/02 02:12:05;;;;;;;18.20;11.95;;;;;;;10.66;56.10;95565.72;5048786;28;20130;-67
2021/07/02 02:14:30;;;;;;;26.88;17.40;;;;;;;10.42;57.36;95571.06;5053006;28;20120;-66
2021/07/02 02:16:56;;;;;;;23.58;13.90;;;;;;;10.52;56.72;95570.81;5058877;28;20076;-66
2021/07/02 02:19:21;;;;;;;22.33;13.00;;;;;;;10.79;55.94;95565.94;5064559;28;20105;-66
2021/07/02 02:21:47;;;;;;;26.20;17.02;;;;;;;10.42;57.30;95575.56;5051390;28;20115;-66
2021/07/02 02:24:13;;;;;;;21.08;13.90;;;;;;;10.71;55.69;95566.81;5048568;28;20432;-66
2021/07/02 02:26:38;;;;;;;28.20;17.23;;;;;;;10.54;56.92;95573.31;5061145;28;20120;-66
2021/07/02 02:29:03;;;;;;;21.38;12.35;;;;;;;10.31;56.99;95569.66;5049755;28;20285;-66
2021/07/02 02:31:29;;;;;;;22.98;13.85;;;;;;;10.34;57.27;95568.47;5061555;28;20241;-66
2021/07/02 02:33:54;;;;;;;25.35;16.30;;;;;;;10.44;56.72;95565.56;5060001;28;20108;-66
2021/07/02 02:36:21;;;;;;;21.58;13.85;;;;;;;10.59;56.31;95570.94;5056703;28;20086;-66
2021/07/02 02:38:46;;;;;;;21.23;13.60;;;;;;;10.43;57.63;95570.06;5051983;28;20109;-66
2021/07/02 02:41:11;;;;;;;20.27;12.25;;;;;;;10.57;56.29;95570.31;5054070;28;20101;-66
2021/07/02 02:43:37;;;;;;;25.95;13.82;;;;;;;10.57;55.99;95571.13;5057566;28;20073;-67
2021/07/02 02:46:02;;;;;;;22.80;12.45;;;;;;;10.29;56.71;95574.31;5056665;28;20202;-66
2021/07/02 02:48:28;;;;;;;22.98;13.68;;;;;;;10.66;55.74;95568.38;5054136;28;20508;-66
2021/07/02 02:50:53;;;;;;;23.58;14.27;;;;;;;10.57;55.98;95570.31;5053714;28;20183;-66
2021/07/02 02:53:19;;;;;;;22.55;13.55;;;;;;;10.71;56.00;95576.66;5057330;28;20163;-66
2021/07/02 02:55:44;;;;;;;19.90;13.32;;;;;;;10.65;55.61;95569.38;5053445;28;20073;-66
2021/07/02 02:58:10;;;;;;;20.40;13.57;;;;;;;10.69;56.31;95568.03;5064238;28;20187;-66
2021/07/02 03:00:35;;;;;;;25.30;13.02;;;;;;;10.84;55.83;95574.22;5057334;28;20078;-66
2021/07/02 03:03:01;;;;;;;26.98;17.80;;;;;;;10.84;56.71;95568.88;5055238;28;20109;-66
2021/07/02 03:05:26;;;;;;;20.52;11.48;;;;;;;11.09;55.98;95571.31;5054832;28;20113;-66
2021/07/02 03:07:55;;;;;;;20.52;11.57;;;;;;;10.99;55.11;95571.56;5055320;28;20086;-66
2021/07/02 03:10:21;;;;;;;21.05;11.57;;;;;;;11.26;54.50;95569.31;5051349;28;20118;-66
2021/07/02 03:12:46;;;;;;;21.38;13.73;;;;;;;11.00;54.88;95577.72;5074968;28;20082;-66
2021/07/02 03:15:13;;;;;;;22.30;14.48;;;;;;;11.03;55.30;95580.03;5051421;28;20138;-66
2021/07/02 03:17:39;;;;;;;22.08;12.73;;;;;;;11.11;54.97;95579.97;5063530;28;20134;-66
2021/07/02 03:20:10;;;;;;;25.10;12.35;;;;;;;11.07;55.22;95578.66;5059393;28;20397;-66
2021/07/02 03:22:36;;;;;;;23.08;12.68;;;;;;;11.30;54.33;95575.13;5059987;28;20092;-66
2021/07/02 03:25:05;;;;;;;20.52;11.25;;;;;;;11.24;53.80;95583.84;5049892;28;20437;-66
2021/07/02 03:27:31;;;;;;;18.73;10.73;;;;;;;11.10;54.11;95572.16;5070942;28;20146;-67
2021/07/02 03:29:57;;;;;;;19.33;11.70;;;;;;;11.05;54.33;95582.50;5051965;28;20101;-66
2021/07/02 03:32:22;;;;;;;19.58;12.02;;;;;;;11.03;54.46;95580.03;5059576;28;20092;-66
2021/07/02 03:34:48;;;;;;;18.83;11.73;;;;;;;11.10;54.51;95582.81;5042840;28;20097;-66
2021/07/02 03:37:16;;;;;;;19.20;11.13;;;;;;;10.91;54.80;95584.97;5058010;28;20081;-66
2021/07/02 03:39:42;;;;;;;19.65;11.43;;;;;;;10.81;54.82;95585.22;5058393;28;20095;-66
2021/07/02 03:42:07;;;;;;;17.02;10.68;;;;;;;10.76;55.01;95587.59;5058844;28;20117;-66
2021/07/02 03:44:33;;;;;;;16.13;9.65;;;;;;;10.90;54.24;95585.13;5046253;28;20093;-66
2021/07/02 03:46:58;;;;;;;16.05;11.60;;;;;;;10.45;55.52;95593.84;5054129;28;20109;-66
2021/07/02 03:49:24;;;;;;;16.73;9.68;;;;;;;10.50;54.97;95594.13;5067970;28;20151;-66
2021/07/02 03:51:49;;;;;;;16.17;9.98;;;;;;;10.54;55.12;95592.75;5057558;28;20084;-66
2021/07/02 03:54:14;;;;;;;17.85;12.25;;;;;;;10.18;57.06;95594.19;5047786;28;20163;-66
2021/07/02 03:57:10;;;;;;;21.90;13.95;;;;;;;10.17;56.66;95591.69;5049367;28;20080;-66
2021/07/02 03:59:25;;;;;;;18.77;13.20;;;;;;;10.15;56.97;95585.72;5049664;28;20743;-66
2021/07/02 04:01:51;;;;;;;20.30;13.65;;;;;;;10.25;55.70;95586.31;5047605;28;20101;-66
2021/07/02 04:04:16;;;;;;;16.38;10.38;;;;;;;10.34;54.80;95584.44;5051267;28;20085;-66
2021/07/02 04:06:41;;;;;;;15.48;9.63;;;;;;;10.38;54.59;95585.75;5055814;28;20508;-66
2021/07/02 04:09:07;;;;;;;18.08;9.98;;;;;;;10.19;54.97;95592.34;5054183;28;20542;-66
2021/07/02 04:11:32;;;;;;;13.32;9.43;;;;;;;10.40;54.63;95593.56;5057887;28;20453;-66
2021/07/02 04:13:58;;;;;;;19.05;10.00;;;;;;;10.19;55.17;95592.34;5051201;28;20105;-66
2021/07/02 04:16:23;;;;;;;19.90;12.52;;;;;;;10.15;55.61;95589.22;5056691;28;20166;-66
2021/07/02 04:18:48;;;;;;;19.95;13.30;;;;;;;10.04;57.86;95595.75;5053615;28;20101;-66
2021/07/02 04:21:14;;;;;;;16.63;11.73;;;;;;;10.09;56.03;95593.41;5046595;28;20097;-66
2021/07/02 04:23:39;;;;;;;18.17;12.95;;;;;;;10.00;57.90;95599.75;5057302;28;20073;-66
2021/07/02 04:26:05;;;;;;;18.13;10.85;;;;;;;10.10;56.04;95597.72;5048898;28;20113;-66
2021/07/02 04:28:30;;;;;;;20.13;12.68;;;;;;;10.13;57.30;95598.38;5046620;28;20131;-66
2021/07/02 04:30:56;;;;;;;16.88;12.45;;;;;;;10.13;56.41;95601.03;5047931;28;20105;-66
2021/07/02 04:33:21;;;;;;;18.58;11.80;;;;;;;10.31;55.76;95601.59;5049255;28;20134;-66
2021/07/02 04:35:46;;;;;;;18.92;12.02;;;;;;;10.58;58.89;95599.38;5054389;28;20089;-66
2021/07/02 04:38:12;;;;;;;18.95;13.45;;;;;;;10.49;57.26;95597.78;5053436;28;20116;-66
2021/07/02 04:40:37;;;;;;;18.08;12.95;;;;;;;10.52;57.20;95597.44;5053286;28;20104;-66
2021/07/02 04:43:03;;;;;;;20.98;13.18;;;;;;;10.61;56.68;95601.69;5055425;28;20119;-66
2021/07/02 04:45:28;;;;;;;18.95;12.93;;;;;;;10.65;56.84;95604.84;5052141;28;20117;-66
2021/07/02 04:47:54;;;;;;;17.80;12.20;;;;;;;10.77;56.06;95599.91;5056923;28;20081;-66
2021/07/02 04:50:19;;;;;;;18.52;12.93;;;;;;;10.83;56.17;95604.53;5051822;28;20109;-66
2021/07/02 04:52:45;;;;;;;18.95;12.98;;;;;;;10.93;56.14;95604.25;5062451;28;20537;-66
2021/07/02 04:55:11;;;;;;;22.45;12.68;;;;;;;11.10;55.99;95598.81;5051957;28;20105;-66
2021/07/02 04:57:36;;;;;;;17.08;12.82;;;;;;;11.28;55.46;95601.13;5050688;28;20147;-66
2021/07/02 05:00:04;;;;;;;16.13;12.20;;;;;;;11.17;56.55;95602.41;5045757;28;20089;-67
2021/07/02 05:02:30;;;;;;;;;;;;;;;11.34;55.55;95602.22;5046580;28;20101;-67
2021/07/02 05:04:55;;;;;;;19.37;12.57;;;;;;;11.33;55.31;95614.75;5046437;28;20387;-66
2021/07/02 05:07:20;;;;;;;19.77;13.20;;;;;;;11.24;55.36;95602.50;5047597;28;20852;-66
2021/07/02 05:09:46;;;;;;;20.30;11.93;;;;;;;11.61;54.04;95605.25;5050299;28;20887;-66
2021/07/02 05:12:11;;;;;;;16.42;12.18;;;;;;;11.63;56.23;95609.38;5047273;28;20572;-66
2021/07/02 05:14:38;;;;;;;18.73;12.95;;;;;;;11.56;54.29;95610.31;5051388;28;20175;-66
2021/07/02 05:17:05;;;;;;;19.58;13.05;;;;;;;11.24;55.30;95608.66;5066530;28;20080;-66
2021/07/02 05:19:30;;;;;;;21.75;12.75;;;;;;;11.25;55.07;95604.13;5064593;28;20100;-66
2021/07/02 05:21:56;;;;;;;19.48;11.32;;;;;;;11.43;53.17;95605.63;5051066;28;20135;-66
2021/07/02 05:24:21;;;;;;;20.73;11.73;;;;;;;10.94;54.78;95621.91;5050501;28;20819;-66
2021/07/02 05:26:47;;;;;;;17.50;12.32;;;;;;;11.20;54.91;95614.53;5051754;28;20121;-66
2021/07/02 05:29:12;;;;;;;16.38;10.48;;;;;;;11.46;53.87;95618.59;5052001;28;20081;-66
2021/07/02 05:31:38;;;;;;;17.80;10.80;;;;;;;11.55;53.12;95622.81;5055291;28;20134;-66
2021/07/02 05:34:03;;;;;;;15.38;10.25;;;;;;;11.68;52.76;95616.84;5050777;28;20121;-66
2021/07/02 05:36:28;;;;;;;17.17;10.18;;;;;;;11.58;52.62;95622.47;5054147;28;20076;-66
2021/07/02 05:38:54;;;;;;;16.13;8.55;;;;;;;11.55;52.00;95620.16;5054991;28;20476;-66
2021/07/02 05:41:19;;;;;;;17.30;10.07;;;;;;;11.32;53.84;95615.72;5059603;28;20115;-66
2021/07/02 05:43:45;;;;;;;15.65;10.15;;;;;;;11.31;53.80;95616.75;5053786;28;20127;-66
2021/07/02 05:46:12;;;;;;;18.00;10.52;;;;;;;11.41;54.40;95616.47;5053511;28;20116;-66
2021/07/02 05:48:37;;;;;;;16.33;10.13;;;;;;;11.45;54.72;95623.09;5055257;28;20128;-66
2021/07/02 05:51:03;;;;;;;15.07;9.50;;;;;;;11.33;53.33;95621.91;5059751;28;20174;-66
2021/07/02 05:53:28;;;;;;;13.50;8.32;;;;;;;11.39;52.30;95614.00;5059983;28;20101;-66
2021/07/02 05:55:54;;;;;;;15.60;8.65;;;;;;;10.99;53.33;95621.38;5061468;28;20084;-66
2021/07/02 05:58:19;;;;;;;15.77;9.40;;;;;;;11.19;53.76;95620.88;5047712;28;20101;-67
2021/07/02 06:00:44;;;;;;;16.77;8.63;;;;;;;10.86;53.31;95621.97;5049606;28;20127;-66
2021/07/02 06:03:10;;;;;;;13.40;7.70;;;;;;;10.39;54.04;95626.47;5049064;28;20113;-66
2021/07/02 06:05:35;;;;;;;16.35;8.70;;;;;;;10.27;55.43;95628.72;5050371;28;20109;-66
2021/07/02 06:08:01;;;;;;;19.25;9.27;;;;;;;10.53;54.45;95625.72;5049384;28;20081;-66
2021/07/02 06:10:26;;;;;;;14.55;8.65;;;;;;;10.49;53.42;95635.06;5055941;28;20109;-66
2021/07/02 06:12:52;;;;;;;18.63;8.88;;;;;;;10.72;53.49;95631.56;5049156;28;20085;-66
2021/07/02 06:15:18;;;;;;;15.73;8.90;;;;;;;11.06;54.22;95630.28;5061081;28;20108;-66
2021/07/02 06:17:44;;;;;;;12.65;6.72;;;;;;;10.49;53.64;95632.41;5026330;28;20174;-66
2021/07/02 06:20:11;;;;;;;14.65;8.48;;;;;;;10.39;53.39;95624.66;5052154;28;20073;-66
2021/07/02 06:22:36;;;;;;;15.95;8.65;;;;;;;10.67;54.99;95631.28;5049960;28;20135;-66
2021/07/02 06:25:03;;;;;;;11.70;7.55;;;;;;;10.55;54.14;95631.69;5056746;28;20463;-66
2021/07/02 06:27:29;;;;;;;13.40;6.65;;;;;;;10.54;53.14;95635.34;5065380;28;20082;-66
2021/07/02 06:29:54;;;;;;;9.90;5.63;;;;;;;10.46;52.34;95640.72;5055572;28;20101;-66
2021/07/02 06:32:19;;;;;;;13.48;8.68;;;;;;;10.88;52.76;95642.09;5057053;28;20131;-66
2021/07/02 06:34:45;;;;;;;11.13;7.28;;;;;;;11.03;52.55;95640.47;5048887;28;20101;-66
2021/07/02 06:37:10;;;;;;;14.43;8.13;;;;;;;11.27;53.18;95644.78;5053100;28;20190;-66
2021/07/02 06:39:36;;;;;;;13.02;7.47;;;;;;;10.83;51.92;95649.78;5049774;28;20094;-66
2021/07/02 06:42:01;;;;;;;19.92;8.52;;;;;;;10.45;53.30;95647.91;5051410;28;20160;-66
2021/07/02 06:44:27;;;;;;;13.48;8.25;;;;;;;11.40;51.00;95652.16;5050907;28;20073;-66
2021/07/02 06:46:52;;;;;;;14.55;8.13;;;;;;;11.58;49.77;95646.44;5052205;28;20295;-66
2021/07/02 06:49:18;;;;;;;14.63;8.63;;;;;;;11.67;52.30;95652.53;5051339;28;20113;-66
2021/07/02 06:51:43;;;;;;;12.63;7.03;;;;;;;11.27;51.36;95655.44;5053321;28;20089;-66
2021/07/02 06:54:09;;;;;;;19.15;8.38;;;;;;;11.24;51.47;95650.47;5052976;28;20109;-66
2021/07/02 06:56:34;;;;;;;14.27;8.05;;;;;;;11.29;51.56;95653.41;5052354;28;20097;-66
2021/07/02 06:58:59;;;;;;;15.32;7.80;;;;;;;11.19;52.87;95663.50;5053502;28;20112;-66
2021/07/02 07:01:25;;;;;;;13.55;7.07;;;;;;;11.36;49.33;95658.84;5052169;28;20379;-66
2021/07/02 07:03:51;;;;;;;15.85;8.68;;;;;;;11.46;50.99;95659.41;5054689;28;20545;-67
2021/07/02 07:06:16;;;;;;;13.00;7.75;;;;;;;11.50;49.73;95659.88;5057440;28;20110;-67
2021/07/02 07:08:42;;;;;;;18.65;9.27;;;;;;;11.94;49.30;95658.22;5073620;28;20455;-67
2021/07/02 07:11:07;;;;;;;11.88;6.82;;;;;;;11.50;49.11;95662.53;5049828;28;20124;-66
2021/07/02 07:13:33;;;;;;;15.23;6.97;;;;;;;11.41;51.03;95661.78;5059041;28;20104;-67
2021/07/02 07:15:58;;;;;;;11.10;6.55;;;;;;;11.61;48.09;95666.59;5057477;28;20130;-67
2021/07/02 07:18:23;;;;;;;17.35;7.70;;;;;;;11.75;51.59;95662.25;5059078;28;20191;-67
2021/07/02 07:20:49;;;;;;;13.30;7.35;;;;;;;11.57;51.09;95667.97;5058449;28;20084;-67
2021/07/02 07:23:14;;;;;;;12.95;7.03;;;;;;;12.08;47.44;95663.75;5051420;28;20508;-67
2021/07/02 07:25:40;;;;;;;18.27;10.63;;;;;;;12.45;47.56;95659.25;5058974;28;20155;-67
2021/07/02 07:28:05;;;;;;;15.20;7.53;;;;;;;12.65;49.07;95663.97;5046055;28;20485;-67
2021/07/02 07:30:31;;;;;;;14.27;6.78;;;;;;;12.70;47.58;95663.38;5062232;28;20561;-67
2021/07/02 07:32:56;;;;;;;14.50;8.30;;;;;;;12.69;47.01;95653.72;5053369;28;20084;-67
2021/07/02 07:35:28;;;;;;;15.82;8.35;;;;;;;12.88;47.69;95660.25;5048371;28;20109;-67
2021/07/02 07:37:54;;;;;;;15.68;7.45;;;;;;;13.00;46.45;95665.97;5053772;28;20174;-67
2021/07/02 07:40:21;;;;;;;14.07;6.68;;;;;;;12.93;46.10;95666.69;5050191;28;20146;-67
2021/07/02 07:42:46;;;;;;;14.23;6.82;;;;;;;12.91;45.62;95671.41;5061251;28;20182;-67
2021/07/02 07:45:12;;;;;;;11.05;6.15;;;;;;;12.90;45.66;95683.13;5053145;28;20563;-67
2021/07/02 07:47:37;;;;;;;14.93;6.90;;;;;;;12.83;46.07;95684.06;5053478;28;20411;-67
2021/07/02 07:50:08;;;;;;;11.45;6.70;;;;;;;12.68;48.95;95695.63;5044975;28;20113;-67
2021/07/02 07:55:03;;;;;;;13.60;6.22;;;;;;;12.75;47.48;95680.50;5042558;28;20109;-67
2021/07/02 07:57:28;;;;;;;10.40;5.43;;;;;;;12.15;47.02;95684.16;5053243;28;20112;-66
2021/07/02 07:59:54;;;;;;;12.02;6.30;;;;;;;12.05;47.51;95693.44;5046741;28;20088;-67
2021/07/02 08:02:19;;;;;;;10.50;5.78;;;;;;;12.22;49.07;95686.91;5045892;28;20101;-67
2021/07/02 08:04:45;;;;;;;16.40;5.63;;;;;;;12.31;47.69;95690.31;5046960;28;20538;-67
2021/07/02 08:07:10;;;;;;;11.93;5.95;;;;;;;12.41;46.65;95684.69;5053532;28;20482;-67
2021/07/02 08:09:36;;;;;;;11.85;6.30;;;;;;;12.55;46.92;95685.66;5047144;28;20108;-67
2021/07/02 08:12:01;;;;;;;10.57;5.90;;;;;;;12.10;47.68;95689.22;5049867;28;20141;-66
2021/07/02 08:14:27;;;;;;;11.38;6.60;;;;;;;12.44;47.25;95689.63;5050158;28;20184;-67
2021/07/02 08:16:52;;;;;;;9.55;5.22;;;;;;;12.06;50.55;95698.59;5045875;28;20081;-66
2021/07/02 08:19:18;;;;;;;9.25;5.10;;;;;;;12.17;48.14;95688.50;5067111;28;20112;-67
2021/07/02 08:21:43;;;;;;;9.98;4.88;;;;;;;12.16;48.94;95687.66;5052931;28;20123;-67
2021/07/02 08:24:08;;;;;;;10.68;5.28;;;;;;;12.16;46.52;95676.97;5051937;28;20077;-67
2021/07/02 08:26:34;;;;;;;9.77;5.65;;;;;;;12.53;44.92;95693.00;5047278;28;20120;-67
2021/07/02 08:31:43;;;;;;;8.85;5.50;;;;;;;11.82;47.30;95707.69;5049344;28;20108;-67
2021/07/02 08:34:09;;;;;;;7.78;5.20;;;;;;;12.62;46.90;95707.88;5046151;28;20147;-66
2021/07/02 08:36:34;;;;;;;9.38;4.97;;;;;;;12.84;47.45;95696.38;5044905;28;20080;-66
2021/07/02 08:39:00;;;;;;;9.48;4.97;;;;;;;13.02;46.67;95704.00;5046085;28;20542;-66
2021/07/02 08:41:26;;;;;;;9.57;5.22;;;;;;;12.68;46.78;95708.97;5055256;28;20101;-67
2021/07/02 08:43:51;;;;;;;10.68;5.20;;;;;;;13.09;45.49;95706.75;5052828;28;20501;-67
2021/07/02 08:46:19;;;;;;;9.10;4.72;;;;;;;13.07;46.36;95703.41;5065264;28;20258;-67
2021/07/02 08:48:45;;;;;;;8.75;5.20;;;;;;;13.69;46.42;95701.84;5047045;28;20602;-67
2021/07/02 08:51:11;;;;;;;7.75;4.10;;;;;;;13.35;45.15;95700.78;5045334;28;20261;-67
2021/07/02 08:53:37;;;;;;;6.47;3.85;;;;;;;12.47;48.51;95707.09;5054235;28;20113;-67
2021/07/02 08:56:03;;;;;;;5.55;3.17;;;;;;;13.08;42.87;95702.44;5064212;28;20081;-67
2021/07/02 08:58:29;;;;;;;7.28;4.25;;;;;;;13.08;45.45;95710.44;5052460;28;20120;-67
2021/07/02 09:00:55;;;;;;;5.05;3.60;;;;;;;12.95;44.49;95709.25;5063620;28;20079;-67
2021/07/02 09:03:27;;;;;;;9.68;4.13;;;;;;;13.03;46.59;95722.50;5050367;28;20113;-67
2021/07/02 09:05:53;;;;;;;12.57;4.47;;;;;;;12.88;45.77;95719.03;5051279;28;20140;-67
2021/07/02 09:08:19;;;;;;;8.23;4.03;;;;;;;12.79;46.80;95723.69;5051046;28;20081;-67
2021/07/02 09:10:45;;;;;;;7.57;4.20;;;;;;;13.11;48.18;95726.06;5054467;28;20131;-67
2021/07/02 09:13:14;;;;;;;16.80;4.53;;;;;;;13.49;44.13;95731.13;5050202;28;20077;-68
2021/07/02 09:15:46;;;;;;;3.70;2.90;;;;;;;13.51;44.01;95720.25;5053082;28;20111;-68
2021/07/02 09:18:12;;;;;;;8.02;4.55;;;;;;;13.11;44.04;95718.06;5051085;28;20597;-67
2021/07/02 09:20:39;;;;;;;5.88;3.58;;;;;;;13.51;45.68;95730.94;5052876;28;20087;-67
2021/07/02 09:23:11;;;;;;;5.50;3.70;;;;;;;13.69;42.97;95717.06;5055199;28;20097;-68
2021/07/02 09:25:38;;;;;;;5.22;3.60;;;;;;;13.41;44.14;95724.09;5046659;28;20132;-67
2021/07/02 09:28:08;;;;;;;7.72;3.78;;;;;;;13.76;43.39;95727.81;5058824;28;20086;-67
2021/07/02 09:30:38;;;;;;;5.80;3.83;;;;;;;13.46;42.77;95728.03;5046608;28;20144;-67
2021/07/02 09:33:05;;;;;;;5.40;3.40;;;;;;;13.64;43.46;95731.06;5050930;28;20085;-67
2021/07/02 09:35:36;;;;;;;6.18;4.03;;;;;;;14.41;44.15;95724.91;5047459;28;20608;-68
2021/07/02 09:38:03;;;;;;;8.70;4.10;;;;;;;14.53;42.33;95727.00;5049629;28;20158;-68
2021/07/02 09:40:38;;;;;;;9.73;4.05;;;;;;;14.56;42.35;95729.28;5050645;28;20207;-68
2021/07/02 09:43:05;;;;;;;6.95;3.38;;;;;;;14.36;42.26;95730.03;5047012;28;20100;-68
2021/07/02 09:45:32;;;;;;;4.82;3.40;;;;;;;14.32;41.19;95736.81;5052664;28;20181;-68
2021/07/02 09:48:06;;;;;;;5.68;3.60;;;;;;;14.68;41.97;95740.25;5037641;28;20081;-68
2021/07/02 09:50:31;;;;;;;5.00;3.30;;;;;;;14.84;39.93;95731.03;5054536;28;20108;-68
2021/07/02 09:53:01;;;;;;;4.72;3.35;;;;;;;14.85;41.23;95738.88;5051589;28;20081;-67
2021/07/02 09:55:29;;;;;;;6.85;3.42;;;;;;;14.32;44.09;95742.19;5035425;28;20116;-67
2021/07/02 09:58:04;;;;;;;;;;;;;;;14.27;43.81;95736.56;5047955;28;20183;-67
2021/07/02 10:00:31;;;;;;;10.10;3.90;;;;;;;14.16;42.32;95737.97;5067913;28;19977;-67
2021/07/02 10:02:57;;;;;;;5.50;3.50;;;;;;;14.72;40.74;95736.97;5049862;28;20113;-67
2021/07/02 10:05:26;;;;;;;5.15;3.55;;;;;;;15.15;40.88;95747.59;5059914;28;20101;-67
2021/07/02 10:08:04;;;;;;;5.90;3.35;;;;;;;15.68;38.40;95743.31;5061787;28;20080;-67
2021/07/02 10:10:30;;;;;;;6.32;4.00;;;;;;;15.20;39.90;95743.28;5077152;28;20445;-67
2021/07/02 10:12:56;;;;;;;5.75;3.42;;;;;;;16.03;37.03;95744.91;5042126;28;20080;-66
2021/07/02 10:15:22;;;;;;;5.65;3.30;;;;;;;15.37;38.53;95753.63;5050123;28;20105;-67
2021/07/02 10:17:48;;;;;;;6.40;3.40;;;;;;;15.60;39.68;95747.88;5050285;28;20196;-67
2021/07/02 10:20:14;;;;;;;4.20;3.22;;;;;;;16.31;38.02;95749.19;5052817;28;20100;-68
2021/07/02 10:22:39;;;;;;;5.07;2.95;;;;;;;15.27;38.83;95758.56;5052759;28;20104;-67
2021/07/02 10:25:05;;;;;;;6.30;3.42;;;;;;;15.58;37.46;95747.25;5053562;28;20093;-67
2021/07/02 10:27:31;;;;;;;4.35;3.15;;;;;;;15.09;38.35;95750.06;5062652;28;20470;-67
2021/07/02 10:29:57;;;;;;;4.80;3.25;;;;;;;15.22;39.59;95743.06;5048671;28;20105;-67
2021/07/02 10:32:22;;;;;;;6.03;3.38;;;;;;;14.89;39.99;95749.22;5038314;28;20089;-67
2021/07/02 10:34:48;;;;;;;4.80;3.28;;;;;;;15.79;38.68;95748.06;5030140;28;20115;-67
2021/07/02 10:37:13;;;;;;;3.75;3.00;;;;;;;15.98;37.29;95741.00;5062634;28;20096;-67
2021/07/02 10:39:43;;;;;;;6.03;2.38;;;;;;;15.14;37.33;95741.41;5050870;28;20082;-68
2021/07/02 10:42:13;;;;;;;4.40;2.53;;;;;;;14.78;39.47;95745.25;5048756;28;20136;-67
2021/07/02 10:44:59;;;;;;;2.97;2.67;;;;;;;15.22;38.06;95751.94;5038999;28;20536;-67
2021/07/02 10:47:25;;;;;;;3.83;2.70;;;;;;;15.03;39.51;95748.19;5046135;28;20121;-67
2021/07/02 10:49:51;;;;;;;6.40;2.72;;;;;;;14.49;40.38;95744.50;5055175;28;20112;-67
2021/07/02 10:52:22;;;;;;;3.30;2.70;;;;;;;14.70;40.59;95757.78;5052466;28;20545;-67
2021/07/02 10:54:48;;;;;;;5.25;3.50;;;;;;;14.24;40.04;95747.69;5047957;28;20629;-68
2021/07/02 10:57:17;;;;;;;4.40;2.65;;;;;;;15.53;37.82;95748.88;5046636;28;20570;-68
2021/07/02 10:59:45;;;;;;;3.85;3.10;;;;;;;15.86;35.48;95746.19;5069732;28;20081;-67
2021/07/02 11:02:13;;;;;;;4.80;3.08;;;;;;;16.28;35.62;95752.31;5046083;28;20116;-67
2021/07/02 11:04:58;;;;;;;6.00;3.25;;;;;;;15.68;36.93;95754.91;5048430;28;20073;-67
2021/07/02 11:07:27;;;;;;;5.90;2.90;;;;;;;15.36;35.94;95757.31;5068087;28;20093;-67
2021/07/02 11:09:53;;;;;;;3.42;2.58;;;;;;;15.75;36.79;95750.31;5052388;28;20124;-67
2021/07/02 11:12:25;;;;;;;5.00;2.72;;;;;;;15.75;37.16;95754.88;5047804;28;20104;-66
2021/07/02 11:14:57;;;;;;;5.07;2.97;;;;;;;15.82;37.36;95744.13;5047493;28;20156;-66
2021/07/02 11:17:35;;;;;;;4.35;2.80;;;;;;;15.90;39.17;95738.53;5047002;28;20084;-67
2021/07/02 11:20:10;;;;;;;5.93;3.38;;;;;;;15.51;37.78;95742.88;5050644;28;20099;-66
2021/07/02 11:22:36;;;;;;;6.32;3.53;;;;;;;15.42;37.53;95737.72;5051570;28;20111;-66
2021/07/02 11:25:07;;;;;;;5.03;3.13;;;;;;;16.09;36.07;95730.66;5052613;28;20088;-67